Drayton Plains, Michigan
Current Conditions -  °F | °C
As of 2:02 PM on Saturday 25 Oct 2014 (Local Time) from KPTK Reporting Station
Scattered Clouds Scattered Clouds  
Wind Chill: 61°   Ceiling: Unl
Heat Index: 61°   Visibility: 8mi
Dew Point: 49°   Wind: 14mph
Humidity: 64%   Direction: 280°W
Pressure: 29.75"   Gusts: NA
Location:  42.68°N, 83.38°W
Report Text: KPTK 251802Z 28012KT 8SM FEW020 SCT027 16/09 A2975 RMK AO2 T01610094
Loading
Personal Weather Stations






























Interactive Weather Map
Tropical Storm Tracking
New forecast layout! Learn more

10-Day Weather Forecast

Advertisements
Track Severe Weather on mobile